This is the latest recevied weather packets stored in our database for station/object OE5RPP. If no packets are shown the sender has not sent any weather packets the latest 10 day(s).
| Time | Temp. | Humidity | Pressure | Rain* | Wind** | Luminosity | Snow |
|---|---|---|---|---|---|---|---|
| 1777861126 | 15.56° C | 22% | 1016.9 hPa | 0 mm | - | - | - |
| 1777860525 | 15.56° C | 22% | 1016.9 hPa | 0 mm | - | - | - |
| 1777859926 | 15.56° C | 22% | 1016.9 hPa | 0 mm | - | - | - |
| 1777859325 | 16.11° C | 22% | 1016.9 hPa | 0 mm | - | - | - |
| 1777858725 | 16.67° C | 22% | 1016.9 hPa | 0 mm | - | - | - |
| 1777858124 | 16.11° C | 22% | 1016.9 hPa | 0 mm | - | - | - |
| 1777857526 | 15.56° C | 22% | 1016.9 hPa | 0 mm | - | - | - |
| 1777856926 | 14.44° C | 26% | 1016.9 hPa | 0 mm | - | - | - |
| 1777856325 | 12.22° C | 35% | 1016.9 hPa | 0 mm | - | - | - |
| 1777855724 | 11.67° C | 35% | 1016.9 hPa | 0 mm | - | - | - |
| 1777855124 | 11.67° C | 36% | 1016.9 hPa | 0 mm | - | - | - |
| 1777854525 | 11.67° C | 37% | 1016.9 hPa | 0 mm | - | - | - |
| 1777853924 | 11.67° C | 36% | 1016.9 hPa | 0 mm | - | - | - |
| 1777853324 | 11.11° C | 37% | 1015.9 hPa | 0 mm | - | - | - |
| 1777852725 | 11.11° C | 37% | 1015.9 hPa | 0 mm | - | - | - |
| 1777852125 | 11.11° C | 37% | 1015.9 hPa | 0 mm | - | - | - |
| 1777851525 | 11.11° C | 37% | 1015.9 hPa | 0 mm | - | - | - |
| 1777850924 | 11.11° C | 39% | 1015.9 hPa | 0 mm | - | - | - |
| 1777850325 | 11.11° C | 37% | 1015.9 hPa | 0 mm | - | - | - |
| 1777849725 | 11.11° C | 37% | 1015.9 hPa | 0 mm | - | - | - |
| 1777849125 | 11.11° C | 39% | 1015.9 hPa | 0 mm | - | - | - |
| 1777848524 | 10.56° C | 40% | 1015.9 hPa | 0 mm | - | - | - |
| 1777847924 | 10.56° C | 39% | 1015.9 hPa | 0 mm | - | - | - |
| 1777847323 | 10.56° C | 39% | 1015.9 hPa | 0 mm | - | - | - |
| 1777846724 | 10.56° C | 36% | 1015.9 hPa | 0 mm | - | - | - |
* Rain latest hour (hover to see other rain measurements)
** Current wind speed in m/s (hover to see current wind gust speed)